createdAt,value
2022-09-07T00:02:23.081Z,13.80
2022-09-07T00:04:50.770Z,13.70
2022-09-07T00:07:18.156Z,13.70
2022-09-07T00:09:45.626Z,13.60
2022-09-07T00:12:13.155Z,13.70
2022-09-07T00:14:40.695Z,13.80
2022-09-07T00:17:08.382Z,13.80
2022-09-07T00:19:35.903Z,13.90
2022-09-07T00:22:03.736Z,13.90
2022-09-07T00:24:32.169Z,13.90
2022-09-07T00:27:00.209Z,13.90
2022-09-07T00:29:27.983Z,13.90
2022-09-07T00:31:55.751Z,13.90
2022-09-07T00:34:23.553Z,13.90
2022-09-07T00:36:51.042Z,13.90
2022-09-07T00:39:18.539Z,14.00
2022-09-07T00:41:45.999Z,13.90
2022-09-07T00:44:32.327Z,13.90
2022-09-07T00:47:01.083Z,13.80
2022-09-07T00:49:28.911Z,13.80
2022-09-07T00:51:59.378Z,13.90
2022-09-07T00:54:36.246Z,13.80
2022-09-07T00:57:04.543Z,13.90
2022-09-07T00:59:34.759Z,13.90
2022-09-07T01:02:02.842Z,13.80
2022-09-07T01:04:31.309Z,13.90
2022-09-07T01:06:59.531Z,13.80
2022-09-07T01:09:28.041Z,13.80
2022-09-07T01:11:57.912Z,13.80
2022-09-07T01:14:30.181Z,13.90
2022-09-07T01:17:16.218Z,14.00
2022-09-07T01:20:02.505Z,13.90
2022-09-07T01:22:30.256Z,13.90
2022-09-07T01:25:05.327Z,13.90
2022-09-07T01:27:51.927Z,13.90
2022-09-07T01:30:20.495Z,14.00
2022-09-07T01:32:48.039Z,14.00
2022-09-07T01:35:22.801Z,13.90
2022-09-07T01:38:00.355Z,14.00
2022-09-07T01:40:36.651Z,13.90
2022-09-07T01:43:07.243Z,13.90
2022-09-07T01:45:36.509Z,14.00
2022-09-07T01:48:08.705Z,14.10
2022-09-07T01:50:53.714Z,14.10
2022-09-07T01:53:28.698Z,14.10
2022-09-07T01:56:02.071Z,14.10
2022-09-07T01:58:32.973Z,14.10
2022-09-07T02:01:07.975Z,14.00
2022-09-07T02:03:42.250Z,14.00
2022-09-07T02:06:12.830Z,14.00
2022-09-07T02:08:42.657Z,14.00
2022-09-07T02:11:31.633Z,13.90
2022-09-07T02:14:05.965Z,14.00
2022-09-07T02:16:35.658Z,13.90
2022-09-07T02:19:09.098Z,13.90
2022-09-07T02:21:38.262Z,13.90
2022-09-07T02:24:13.651Z,13.90
2022-09-07T02:26:42.116Z,13.90
2022-09-07T02:29:09.639Z,14.00
2022-09-07T02:31:37.151Z,13.90
2022-09-07T02:34:04.784Z,13.90
2022-09-07T02:36:39.904Z,13.90
2022-09-07T02:39:07.909Z,13.90
2022-09-07T02:41:36.740Z,13.90
2022-09-07T02:44:07.838Z,13.90
2022-09-07T02:46:38.468Z,14.00
2022-09-07T02:49:06.091Z,14.00
2022-09-07T02:51:36.605Z,14.00
2022-09-07T02:54:13.494Z,14.00
2022-09-07T02:56:46.372Z,13.90
2022-09-07T02:59:33.056Z,13.90
2022-09-07T03:02:30.524Z,13.80
2022-09-07T03:05:03.863Z,13.80
2022-09-07T03:07:54.779Z,13.80
2022-09-07T03:10:22.603Z,13.80
2022-09-07T03:12:51.103Z,13.90
2022-09-07T03:15:20.793Z,14.00
2022-09-07T03:17:48.487Z,14.00
2022-09-07T03:20:17.582Z,14.00
2022-09-07T03:22:45.833Z,13.90
2022-09-07T03:25:13.643Z,13.90
2022-09-07T03:27:41.114Z,13.80
2022-09-07T03:30:09.547Z,13.90
2022-09-07T03:32:38.163Z,14.00
2022-09-07T03:35:06.962Z,14.00
2022-09-07T03:37:38.096Z,14.10
2022-09-07T03:40:07.541Z,14.10
2022-09-07T03:42:35.695Z,14.10
2022-09-07T03:45:04.032Z,14.10
2022-09-07T03:47:31.664Z,14.10
2022-09-07T03:49:59.501Z,14.20
2022-09-07T03:52:27.394Z,14.20
2022-09-07T03:54:55.139Z,14.10
2022-09-07T03:57:22.606Z,14.10
2022-09-07T03:59:53.170Z,14.10
2022-09-07T04:02:20.990Z,14.10
2022-09-07T04:04:49.350Z,14.20
2022-09-07T04:07:16.884Z,14.20
2022-09-07T04:09:44.591Z,14.20
2022-09-07T04:12:12.102Z,14.20
2022-09-07T04:14:39.681Z,14.30
2022-09-07T04:17:07.477Z,14.30
2022-09-07T04:19:35.079Z,14.30
2022-09-07T04:22:02.714Z,14.40
2022-09-07T04:24:30.233Z,14.40
2022-09-07T04:26:57.832Z,14.50
2022-09-07T04:29:25.362Z,14.40
2022-09-07T04:31:52.847Z,14.40
2022-09-07T04:34:20.973Z,14.40
2022-09-07T04:36:48.658Z,14.50
2022-09-07T04:39:17.455Z,14.50
2022-09-07T04:41:47.301Z,14.50
2022-09-07T04:44:17.206Z,14.50
2022-09-07T04:46:46.425Z,14.50
2022-09-07T04:49:17.841Z,14.40
2022-09-07T04:51:47.852Z,14.50
2022-09-07T04:54:15.844Z,14.50
2022-09-07T04:56:44.474Z,14.50
2022-09-07T04:59:13.147Z,14.50
2022-09-07T05:01:41.516Z,14.60
2022-09-07T05:04:10.754Z,14.70
2022-09-07T05:06:38.140Z,14.70
2022-09-07T05:09:05.896Z,14.70
2022-09-07T05:11:33.778Z,14.80
2022-09-07T05:14:02.823Z,14.80
2022-09-07T05:16:31.156Z,14.80
2022-09-07T05:19:00.101Z,14.80
2022-09-07T05:21:28.529Z,14.80
2022-09-07T05:23:56.996Z,14.90
2022-09-07T05:26:25.515Z,14.80
2022-09-07T05:28:53.543Z,14.90
2022-09-07T05:31:40.936Z,14.90
2022-09-07T05:36:57.148Z,15.00
2022-09-07T05:39:25.385Z,15.10
2022-09-07T05:41:53.214Z,15.10
2022-09-07T05:47:08.522Z,15.20
2022-09-07T05:49:36.456Z,15.30
2022-09-07T05:52:03.995Z,15.20
2022-09-07T05:54:31.591Z,15.20
2022-09-07T05:56:59.273Z,15.30
2022-09-07T05:59:26.639Z,15.40
2022-09-07T06:01:54.922Z,15.30
2022-09-07T06:04:22.383Z,15.40
2022-09-07T06:07:11.026Z,15.50
2022-09-07T06:12:26.890Z,15.60
2022-09-07T06:14:54.592Z,15.60
2022-09-07T06:17:22.166Z,15.70
2022-09-07T06:19:50.027Z,15.90
2022-09-07T06:22:17.484Z,16.10
2022-09-07T06:24:45.098Z,16.30
2022-09-07T06:27:13.018Z,16.50
2022-09-07T06:29:40.974Z,16.70
2022-09-07T06:34:55.858Z,16.90
2022-09-07T06:37:23.617Z,16.80
2022-09-07T06:39:52.306Z,16.60
2022-09-07T06:42:19.902Z,16.40
2022-09-07T06:44:52.903Z,16.40
2022-09-07T06:47:20.643Z,16.70
2022-09-07T06:49:48.043Z,16.90
2022-09-07T06:52:15.610Z,17.00
2022-09-07T06:54:58.859Z,16.90
2022-09-07T06:57:27.396Z,17.20
2022-09-07T06:59:54.827Z,17.60
2022-09-07T07:02:22.693Z,17.90
2022-09-07T07:04:50.448Z,17.70
2022-09-07T07:07:17.929Z,17.80
2022-09-07T07:09:45.558Z,17.60
2022-09-07T07:12:13.127Z,18.00
2022-09-07T07:14:44.747Z,18.70
2022-09-07T07:17:13.460Z,19.20
2022-09-07T07:19:41.091Z,19.50
2022-09-07T07:22:23.757Z,19.70
2022-09-07T07:24:56.439Z,19.00
2022-09-07T07:27:23.971Z,19.20
2022-09-07T07:29:52.813Z,20.00
2022-09-07T07:32:20.314Z,20.50
2022-09-07T07:34:47.812Z,20.90
2022-09-07T07:37:15.997Z,21.50
2022-09-07T07:42:33.121Z,22.60
2022-09-07T07:47:51.692Z,23.40
2022-09-07T07:50:35.305Z,24.20
2022-09-07T07:55:51.133Z,24.60
2022-09-07T07:58:18.696Z,25.30
2022-09-07T08:00:55.406Z,25.60
2022-09-07T08:03:23.811Z,29.30
2022-09-07T08:05:51.804Z,29.50
2022-09-07T08:08:19.405Z,28.60
2022-09-07T08:10:48.182Z,30.90
2022-09-07T08:13:16.186Z,32.70
2022-09-07T08:15:46.922Z,31.00
2022-09-07T08:18:16.069Z,28.40
2022-09-07T08:20:43.985Z,27.30
2022-09-07T08:23:12.113Z,27.80
2022-09-07T08:25:48.956Z,27.90
2022-09-07T08:28:16.481Z,28.30
2022-09-07T08:30:43.997Z,29.30
2022-09-07T08:33:11.690Z,30.10
2022-09-07T08:35:39.452Z,34.50
2022-09-07T08:38:07.315Z,38.40
2022-09-07T08:40:38.665Z,38.10
2022-09-07T08:43:15.224Z,38.30
2022-09-07T08:45:47.776Z,38.00
2022-09-07T08:48:17.345Z,36.90
2022-09-07T08:50:54.755Z,36.60
2022-09-07T08:53:22.815Z,37.70
2022-09-07T08:55:50.295Z,39.60
2022-09-07T08:58:47.646Z,37.10
2022-09-07T09:04:24.104Z,37.60
2022-09-07T09:06:11.415Z,37.40
2022-09-07T09:07:19.012Z,39.30
2022-09-07T09:10:05.467Z,40.60
2022-09-07T09:12:37.853Z,39.80
2022-09-07T09:15:14.688Z,43.00
2022-09-07T09:17:48.455Z,40.80
2022-09-07T09:20:31.449Z,41.50
2022-09-07T09:23:02.526Z,41.90
2022-09-07T09:25:34.940Z,44.50
2022-09-07T09:28:02.788Z,46.50
2022-09-07T09:30:31.488Z,43.60
2022-09-07T09:33:16.197Z,43.70
2022-09-07T09:35:44.864Z,44.70
2022-09-07T09:38:32.623Z,47.60
2022-09-07T09:41:03.685Z,48.70
2022-09-07T09:43:41.427Z,45.70
2022-09-07T09:46:27.958Z,43.50
2022-09-07T09:48:56.008Z,42.00
2022-09-07T09:54:15.286Z,46.40
2022-09-07T09:56:46.539Z,48.30
2022-09-07T10:05:32.329Z,47.10
2022-09-07T10:07:59.882Z,47.10
2022-09-07T10:10:28.497Z,46.90
2022-09-07T10:12:56.302Z,50.00
2022-09-07T10:15:29.459Z,51.20
2022-09-07T10:17:58.865Z,51.90
2022-09-07T10:20:32.564Z,51.50
2022-09-07T10:23:01.004Z,50.30
2022-09-07T10:25:31.643Z,49.30
2022-09-07T10:28:14.893Z,44.70
2022-09-07T10:31:01.658Z,45.90
2022-09-07T10:34:25.749Z,48.30
2022-09-07T10:36:37.590Z,49.60
2022-09-07T10:39:08.202Z,48.90
2022-09-07T10:41:54.502Z,49.80
2022-09-07T10:44:31.497Z,50.10
2022-09-07T10:47:06.939Z,49.20
2022-09-07T10:50:23.007Z,50.90
2022-09-07T10:53:00.023Z,50.30
2022-09-07T10:55:32.678Z,50.10
2022-09-07T10:58:06.503Z,50.20
2022-09-07T11:01:00.870Z,49.70
2022-09-07T11:03:32.276Z,48.40
2022-09-07T11:06:09.861Z,47.80
2022-09-07T11:12:02.039Z,48.20
2022-09-07T11:14:33.625Z,46.50
2022-09-07T11:17:03.983Z,46.10
2022-09-07T11:19:37.189Z,46.30
2022-09-07T11:22:11.560Z,44.70
2022-09-07T11:27:44.907Z,45.60
2022-09-07T11:30:22.062Z,45.70
2022-09-07T11:33:02.967Z,45.20
2022-09-07T11:35:30.595Z,46.60
2022-09-07T11:38:00.436Z,46.00
2022-09-07T11:40:31.261Z,46.40
2022-09-07T11:43:11.205Z,44.20
2022-09-07T11:45:46.243Z,45.10
2022-09-07T11:48:22.558Z,45.60
2022-09-07T11:50:57.997Z,45.40
2022-09-07T11:53:28.261Z,45.20
2022-09-07T11:56:18.079Z,44.80
2022-09-07T11:58:52.032Z,43.40
2022-09-07T12:01:23.679Z,42.30
2022-09-07T12:03:54.785Z,42.10
2022-09-07T12:06:22.639Z,40.30
2022-09-07T12:09:00.091Z,40.90
2022-09-07T12:11:46.529Z,39.70
2022-09-07T12:14:39.823Z,41.00
2022-09-07T12:17:19.717Z,40.50
2022-09-07T12:20:03.186Z,39.10
2022-09-07T12:22:31.217Z,37.10
2022-09-07T12:25:07.495Z,36.50
2022-09-07T12:27:34.981Z,35.70
2022-09-07T12:30:03.161Z,35.10
2022-09-07T12:32:58.029Z,34.70
2022-09-07T12:35:42.310Z,34.00
2022-09-07T12:38:19.744Z,34.00
2022-09-07T12:40:49.150Z,33.90
2022-09-07T12:43:16.975Z,32.90
2022-09-07T12:45:48.045Z,32.60
2022-09-07T12:48:15.699Z,32.10
2022-09-07T12:51:02.827Z,31.70
2022-09-07T12:53:45.949Z,31.40
2022-09-07T12:56:25.640Z,30.60
2022-09-07T12:59:02.446Z,29.80
2022-09-07T13:01:45.949Z,29.30
2022-09-07T13:04:32.224Z,28.90
2022-09-07T13:07:18.539Z,28.60
2022-09-07T13:09:59.270Z,28.40
2022-09-07T13:15:41.839Z,28.00
2022-09-07T13:18:13.150Z,27.60
2022-09-07T13:20:41.758Z,27.80
2022-09-07T13:23:23.818Z,27.50
2022-09-07T13:25:54.010Z,27.20
2022-09-07T13:28:27.718Z,27.40
2022-09-07T13:31:08.594Z,27.30
2022-09-07T13:33:36.592Z,27.30
2022-09-07T13:36:16.477Z,26.80
2022-09-07T13:38:44.415Z,27.20
2022-09-07T13:41:17.370Z,27.10
2022-09-07T13:43:48.712Z,26.60
2022-09-07T13:46:41.208Z,26.40
2022-09-07T13:49:27.938Z,26.40
2022-09-07T13:52:15.761Z,26.50
2022-09-07T13:54:55.906Z,26.30
2022-09-07T13:57:39.954Z,26.20
2022-09-07T14:00:13.408Z,26.30
2022-09-07T14:02:41.010Z,26.30
2022-09-07T14:05:10.299Z,26.20
2022-09-07T14:07:44.079Z,26.20
2022-09-07T14:10:19.786Z,26.10
2022-09-07T14:12:52.182Z,26.00
2022-09-07T14:15:19.908Z,26.00
2022-09-07T14:17:48.013Z,25.80
2022-09-07T14:20:17.511Z,25.70
2022-09-07T14:22:47.478Z,25.60
2022-09-07T14:25:19.635Z,25.50
2022-09-07T14:27:48.070Z,25.50
2022-09-07T14:30:33.658Z,25.50
2022-09-07T14:33:05.814Z,25.40
2022-09-07T14:35:35.402Z,25.10
2022-09-07T14:38:07.233Z,24.70
2022-09-07T14:40:35.259Z,24.70
2022-09-07T14:43:03.050Z,24.60
2022-09-07T14:45:32.948Z,24.50
2022-09-07T14:48:00.988Z,24.70
2022-09-07T14:50:34.162Z,24.90
2022-09-07T14:56:00.877Z,25.00
2022-09-07T14:58:32.711Z,24.80
2022-09-07T15:04:16.270Z,24.70
2022-09-07T15:09:38.378Z,24.70
2022-09-07T15:12:36.455Z,24.80
2022-09-07T15:15:28.099Z,24.70
2022-09-07T15:18:00.791Z,24.60
2022-09-07T15:20:34.802Z,24.60
2022-09-07T15:23:28.828Z,24.30
2022-09-07T15:25:56.628Z,24.60
2022-09-07T15:34:02.638Z,23.80
2022-09-07T15:36:32.059Z,23.90
2022-09-07T15:39:01.559Z,23.70
2022-09-07T15:41:30.894Z,23.30
2022-09-07T15:43:59.452Z,23.50
2022-09-07T15:46:27.624Z,23.50
2022-09-07T15:48:56.380Z,23.40
2022-09-07T15:54:14.167Z,23.30
2022-09-07T15:56:43.638Z,23.10
2022-09-07T15:59:12.354Z,22.90
2022-09-07T16:01:56.643Z,22.70
2022-09-07T16:04:25.019Z,22.70
2022-09-07T16:06:52.893Z,22.70
2022-09-07T16:09:22.102Z,22.60
2022-09-07T16:11:50.660Z,22.40
2022-09-07T16:14:19.220Z,22.10
2022-09-07T16:19:35.273Z,21.90
2022-09-07T16:22:04.395Z,21.80
2022-09-07T16:24:32.542Z,21.70
2022-09-07T16:27:01.164Z,21.60
2022-09-07T16:29:28.744Z,21.30
2022-09-07T16:34:44.946Z,21.10
2022-09-07T16:37:12.684Z,20.80
2022-09-07T16:39:40.461Z,20.70
2022-09-07T16:42:10.221Z,20.50
2022-09-07T16:44:37.766Z,20.40
2022-09-07T16:47:05.742Z,20.30
2022-09-07T16:49:34.213Z,20.30
2022-09-07T16:52:03.712Z,20.20
2022-09-07T16:54:32.619Z,20.00
2022-09-07T16:57:00.675Z,19.90
2022-09-07T16:59:30.736Z,19.80
2022-09-07T17:01:59.247Z,19.80
2022-09-07T17:04:26.969Z,19.20
2022-09-07T17:06:55.155Z,18.90
2022-09-07T17:09:27.170Z,19.00
2022-09-07T17:11:55.235Z,19.10
2022-09-07T17:14:23.163Z,19.00
2022-09-07T17:16:51.319Z,18.90
2022-09-07T17:19:36.407Z,18.80
2022-09-07T17:22:05.191Z,18.50
2022-09-07T17:24:33.152Z,18.40
2022-09-07T17:27:01.517Z,18.10
2022-09-07T17:29:31.221Z,18.10
2022-09-07T17:34:48.268Z,17.90
2022-09-07T17:37:16.338Z,17.90
2022-09-07T17:39:44.564Z,17.80
2022-09-07T17:42:12.827Z,17.80
2022-09-07T17:44:40.349Z,17.80
2022-09-07T17:47:07.941Z,17.70
2022-09-07T17:49:36.971Z,17.80
2022-09-07T17:52:04.818Z,17.60
2022-09-07T17:54:33.015Z,17.30
2022-09-07T17:57:00.671Z,17.20
2022-09-07T18:02:16.793Z,17.10
2022-09-07T18:04:44.654Z,17.00
2022-09-07T18:07:12.513Z,16.80
2022-09-07T18:09:40.488Z,16.80
2022-09-07T18:12:08.080Z,16.70
2022-09-07T18:14:35.723Z,16.60
2022-09-07T18:17:05.555Z,16.50
2022-09-07T18:19:33.741Z,16.50
2022-09-07T18:22:04.175Z,16.50
2022-09-07T18:24:32.644Z,16.40
2022-09-07T18:27:01.417Z,16.30
2022-09-07T18:29:33.594Z,16.30
2022-09-07T18:32:03.355Z,16.20
2022-09-07T18:34:32.108Z,16.20
2022-09-07T18:37:00.254Z,16.20
2022-09-07T18:39:28.829Z,16.00
2022-09-07T18:41:57.025Z,15.90
2022-09-07T18:47:28.465Z,15.70
2022-09-07T18:49:57.311Z,15.70
2022-09-07T18:55:14.147Z,15.60
2022-09-07T18:57:44.130Z,15.50
2022-09-07T19:00:13.347Z,15.50
2022-09-07T19:02:41.914Z,15.40
2022-09-07T19:08:05.307Z,15.40
2022-09-07T19:10:36.067Z,15.40
2022-09-07T19:13:05.914Z,15.30
2022-09-07T19:15:37.149Z,15.30
2022-09-07T19:18:06.510Z,15.40
2022-09-07T19:20:34.548Z,15.30
2022-09-07T19:23:04.944Z,15.30
2022-09-07T19:25:33.011Z,15.20
2022-09-07T19:28:01.730Z,15.30
2022-09-07T19:30:29.502Z,15.30
2022-09-07T19:32:59.670Z,15.30
2022-09-07T19:35:34.395Z,15.20
2022-09-07T19:38:02.516Z,15.10
2022-09-07T19:40:30.459Z,15.10
2022-09-07T19:42:58.440Z,15.20
2022-09-07T19:45:28.541Z,15.10
2022-09-07T19:47:56.478Z,15.00
2022-09-07T19:50:24.389Z,15.00
2022-09-07T19:52:52.314Z,14.90
2022-09-07T19:55:20.000Z,14.90
2022-09-07T19:57:47.833Z,14.80
2022-09-07T20:00:16.631Z,14.80
2022-09-07T20:02:43.999Z,14.70
2022-09-07T20:05:14.155Z,14.70
2022-09-07T20:07:43.017Z,14.60
2022-09-07T20:10:10.596Z,14.50
2022-09-07T20:12:38.633Z,14.50
2022-09-07T20:15:06.502Z,14.60
2022-09-07T20:17:35.497Z,14.50
2022-09-07T20:20:04.058Z,14.50
2022-09-07T20:22:31.756Z,14.20
2022-09-07T20:24:59.874Z,14.30
2022-09-07T20:27:28.188Z,14.40
2022-09-07T20:29:56.198Z,14.40
2022-09-07T20:32:23.697Z,14.40
2022-09-07T20:34:52.399Z,14.30
2022-09-07T20:37:20.010Z,14.20
2022-09-07T20:39:49.188Z,14.30
2022-09-07T20:42:16.966Z,14.20
2022-09-07T20:44:44.776Z,14.20
2022-09-07T20:47:12.567Z,14.20
2022-09-07T20:49:39.995Z,14.20
2022-09-07T20:52:07.444Z,14.20
2022-09-07T20:54:35.306Z,14.20
2022-09-07T20:57:04.135Z,14.10
2022-09-07T20:59:31.808Z,14.00
2022-09-07T21:01:59.366Z,14.00
2022-09-07T21:04:27.759Z,14.00
2022-09-07T21:06:55.102Z,13.90
2022-09-07T21:09:22.711Z,13.90
2022-09-07T21:11:55.140Z,13.90
2022-09-07T21:14:24.790Z,13.90
2022-09-07T21:16:52.582Z,14.00
2022-09-07T21:19:20.340Z,14.00
2022-09-07T21:21:47.806Z,14.00
2022-09-07T21:24:19.765Z,13.90
2022-09-07T21:26:47.841Z,13.90
2022-09-07T21:29:17.338Z,13.90
2022-09-07T21:31:45.158Z,13.80
2022-09-07T21:34:12.828Z,13.80
2022-09-07T21:36:40.316Z,13.60
2022-09-07T21:39:12.590Z,13.60
2022-09-07T21:41:42.750Z,13.60
2022-09-07T21:44:11.188Z,13.60
2022-09-07T21:46:38.739Z,13.60
2022-09-07T21:49:06.542Z,13.60
2022-09-07T21:51:33.888Z,13.60
2022-09-07T21:54:01.480Z,13.60
2022-09-07T21:56:30.031Z,13.60
2022-09-07T21:58:58.668Z,13.60
2022-09-07T22:01:27.346Z,13.50
2022-09-07T22:03:56.250Z,13.50
2022-09-07T22:06:24.512Z,13.40
2022-09-07T22:08:52.073Z,13.40
2022-09-07T22:11:20.477Z,13.30
2022-09-07T22:13:48.539Z,13.30
2022-09-07T22:16:16.085Z,13.30
2022-09-07T22:18:44.755Z,13.40
2022-09-07T22:21:14.330Z,13.40
2022-09-07T22:23:43.613Z,13.40
2022-09-07T22:26:11.288Z,13.40
2022-09-07T22:28:39.182Z,13.40
2022-09-07T22:31:09.736Z,13.40
2022-09-07T22:33:37.779Z,13.40
2022-09-07T22:36:31.663Z,13.40
2022-09-07T22:39:00.477Z,13.30
2022-09-07T22:41:32.513Z,13.30
2022-09-07T22:44:00.602Z,13.20
2022-09-07T22:46:29.978Z,13.20
2022-09-07T22:48:58.991Z,13.10
2022-09-07T22:51:26.933Z,13.10
2022-09-07T22:53:55.278Z,13.10
2022-09-07T22:56:24.576Z,13.10
2022-09-07T22:58:53.737Z,13.10
2022-09-07T23:01:22.102Z,13.10
2022-09-07T23:03:49.787Z,13.00
2022-09-07T23:06:25.043Z,13.00
2022-09-07T23:08:53.265Z,12.90
2022-09-07T23:11:21.393Z,12.90
2022-09-07T23:13:53.213Z,12.80
2022-09-07T23:16:21.225Z,12.80
2022-09-07T23:18:49.177Z,12.80
2022-09-07T23:21:16.749Z,12.80
2022-09-07T23:23:44.149Z,12.90
2022-09-07T23:26:11.598Z,12.90
2022-09-07T23:28:39.003Z,13.00
2022-09-07T23:31:09.889Z,12.90
2022-09-07T23:33:37.780Z,12.90
2022-09-07T23:36:06.286Z,13.00
2022-09-07T23:38:33.946Z,13.10
2022-09-07T23:41:02.213Z,13.20
2022-09-07T23:43:30.508Z,13.20
2022-09-07T23:45:58.238Z,13.20
2022-09-07T23:48:26.109Z,13.30
2022-09-07T23:50:53.521Z,13.30
2022-09-07T23:53:21.176Z,13.20
2022-09-07T23:55:49.268Z,13.30
2022-09-07T23:58:16.739Z,13.30
